createdAt,value
2022-12-15T00:02:42.660Z,86.70
2022-12-15T00:05:35.840Z,79.00
2022-12-15T00:08:31.796Z,85.10
2022-12-15T00:11:26.242Z,86.90
2022-12-15T00:14:16.312Z,92.80
2022-12-15T00:17:06.708Z,92.40
2022-12-15T00:20:00.613Z,105.90
2022-12-15T00:22:51.544Z,101.80
2022-12-15T00:25:42.561Z,99.80
2022-12-15T00:28:34.221Z,91.60
2022-12-15T00:31:26.341Z,88.70
2022-12-15T00:34:17.315Z,86.10
2022-12-15T00:37:08.792Z,85.50
2022-12-15T00:39:42.185Z,82.80
2022-12-15T00:42:18.904Z,83.20
2022-12-15T00:44:55.847Z,82.30
2022-12-15T00:47:29.351Z,78.50
2022-12-15T00:50:21.433Z,82.10
2022-12-15T00:53:13.571Z,81.20
2022-12-15T00:56:07.445Z,81.60
2022-12-15T00:58:58.047Z,73.10
2022-12-15T01:01:49.779Z,74.30
2022-12-15T01:04:41.562Z,74.00
2022-12-15T01:07:32.876Z,68.60
2022-12-15T01:10:23.872Z,66.20
2022-12-15T01:13:14.869Z,66.90
2022-12-15T01:16:06.083Z,65.00
2022-12-15T01:18:59.603Z,67.90
2022-12-15T01:21:35.503Z,61.00
2022-12-15T01:24:10.057Z,61.80
2022-12-15T01:26:44.412Z,59.60
2022-12-15T01:29:17.783Z,60.00
2022-12-15T01:31:52.813Z,62.40
2022-12-15T01:34:25.812Z,59.70
2022-12-15T01:36:59.432Z,56.80
2022-12-15T01:39:53.521Z,59.40
2022-12-15T01:42:27.329Z,57.70
2022-12-15T01:45:29.346Z,58.20
2022-12-15T01:48:06.036Z,63.90
2022-12-15T01:50:41.443Z,67.30
2022-12-15T01:53:15.929Z,70.40
2022-12-15T01:55:51.240Z,68.40
2022-12-15T01:58:24.315Z,69.70
2022-12-15T02:00:57.888Z,69.90
2022-12-15T02:03:31.977Z,69.30
2022-12-15T02:06:06.837Z,68.20
2022-12-15T02:08:43.320Z,69.70
2022-12-15T02:11:28.397Z,67.60
2022-12-15T02:14:04.411Z,68.20
2022-12-15T02:16:43.291Z,70.90
2022-12-15T02:19:39.086Z,68.90
2022-12-15T02:22:22.374Z,64.60
2022-12-15T02:25:12.403Z,59.00
2022-12-15T02:27:52.182Z,55.70
2022-12-15T02:30:36.334Z,57.10
2022-12-15T02:33:14.256Z,57.80
2022-12-15T02:35:55.983Z,66.40
2022-12-15T02:38:38.702Z,63.70
2022-12-15T02:41:41.241Z,58.70
2022-12-15T02:44:21.716Z,58.20
2022-12-15T02:47:16.783Z,56.20
2022-12-15T02:50:05.857Z,57.80
2022-12-15T02:53:09.384Z,60.60
2022-12-15T02:55:51.390Z,61.20
2022-12-15T02:58:33.834Z,60.70
2022-12-15T03:01:09.889Z,65.00
2022-12-15T03:03:43.698Z,65.30
2022-12-15T03:06:16.365Z,62.90
2022-12-15T03:08:49.525Z,60.80
2022-12-15T03:11:22.531Z,63.20
2022-12-15T03:13:56.417Z,65.00
2022-12-15T03:16:29.592Z,64.10
2022-12-15T03:19:02.171Z,63.60
2022-12-15T03:21:36.301Z,65.80
2022-12-15T03:24:10.045Z,63.20
2022-12-15T03:26:43.865Z,66.40
2022-12-15T03:29:16.145Z,65.30
2022-12-15T03:31:52.244Z,65.90
2022-12-15T03:34:24.995Z,68.00
2022-12-15T03:36:59.395Z,67.20
2022-12-15T03:39:32.414Z,66.60
2022-12-15T03:42:06.328Z,68.30
2022-12-15T03:44:38.369Z,68.20
2022-12-15T03:47:11.049Z,66.90
2022-12-15T03:49:44.350Z,72.30
2022-12-15T03:52:17.606Z,70.40
2022-12-15T03:54:51.258Z,68.80
2022-12-15T03:57:27.428Z,67.20
2022-12-15T04:00:01.233Z,69.40
2022-12-15T04:02:42.393Z,70.90
2022-12-15T04:05:17.470Z,70.80
2022-12-15T04:07:50.950Z,68.40
2022-12-15T04:10:31.745Z,71.30
2022-12-15T04:13:09.288Z,74.10
2022-12-15T04:15:43.561Z,72.90
2022-12-15T04:18:16.706Z,72.40
2022-12-15T04:20:52.996Z,75.90
2022-12-15T04:23:26.311Z,76.20
2022-12-15T04:26:16.153Z,75.40
2022-12-15T04:29:08.201Z,73.80
2022-12-15T04:32:04.215Z,73.90
2022-12-15T04:34:56.778Z,79.50
2022-12-15T04:37:46.317Z,83.70
2022-12-15T04:40:37.021Z,82.00
2022-12-15T04:43:30.115Z,79.40
2022-12-15T04:46:21.232Z,78.60
2022-12-15T04:49:14.555Z,78.80
2022-12-15T04:52:09.596Z,82.30
2022-12-15T04:55:01.007Z,83.40
2022-12-15T04:57:52.369Z,78.00
2022-12-15T05:00:45.084Z,77.90
2022-12-15T05:03:35.315Z,80.90
2022-12-15T05:06:28.753Z,76.90
2022-12-15T05:09:21.184Z,80.00
2022-12-15T05:12:12.001Z,89.70
2022-12-15T05:15:07.920Z,85.30
2022-12-15T05:17:58.891Z,82.90
2022-12-15T05:20:49.952Z,86.20
2022-12-15T05:23:40.314Z,86.10
2022-12-15T05:26:34.002Z,88.60
2022-12-15T05:29:28.275Z,81.80
2022-12-15T05:32:00.212Z,78.80
2022-12-15T05:34:33.643Z,74.50
2022-12-15T05:37:07.034Z,81.00
2022-12-15T05:39:38.924Z,81.60
2022-12-15T05:42:11.632Z,85.30
2022-12-15T05:44:46.709Z,80.70
2022-12-15T05:47:19.290Z,78.40
2022-12-15T05:49:53.352Z,81.80
2022-12-15T05:52:28.696Z,77.00
2022-12-15T05:55:06.858Z,83.50
2022-12-15T05:57:41.410Z,83.90
2022-12-15T06:00:17.023Z,110.40
2022-12-15T06:02:52.616Z,129.70
2022-12-15T06:05:25.005Z,84.20
2022-12-15T06:07:58.684Z,102.80
2022-12-15T06:10:31.612Z,86.80
2022-12-15T06:13:07.345Z,80.30
2022-12-15T06:15:41.486Z,84.20
2022-12-15T06:18:15.299Z,76.30
2022-12-15T06:20:47.658Z,130.40
2022-12-15T06:23:23.761Z,82.20
2022-12-15T06:25:58.072Z,65.40
2022-12-15T06:28:30.171Z,68.00
2022-12-15T06:31:07.141Z,99.10
2022-12-15T06:33:40.452Z,82.50
2022-12-15T06:36:15.240Z,75.90
2022-12-15T06:38:49.948Z,80.90
2022-12-15T06:41:24.545Z,79.60
2022-12-15T06:43:59.538Z,79.10
2022-12-15T06:46:33.668Z,78.50
2022-12-15T06:49:06.459Z,77.80
2022-12-15T06:51:41.968Z,84.20
2022-12-15T06:54:14.517Z,76.00
2022-12-15T06:56:47.083Z,83.10
2022-12-15T06:59:22.968Z,80.20
2022-12-15T07:01:57.382Z,83.60
2022-12-15T07:04:31.779Z,76.50
2022-12-15T07:07:08.283Z,77.00
2022-12-15T07:09:44.666Z,69.40
2022-12-15T07:12:18.098Z,89.60
2022-12-15T07:14:53.516Z,85.10
2022-12-15T07:17:25.902Z,75.40
2022-12-15T07:20:00.138Z,71.60
2022-12-15T07:22:33.603Z,67.10
2022-12-15T07:25:07.666Z,72.80
2022-12-15T07:27:39.510Z,73.70
2022-12-15T07:30:14.854Z,72.00
2022-12-15T07:32:50.053Z,73.20
2022-12-15T07:35:23.572Z,65.80
2022-12-15T07:37:56.246Z,76.50
2022-12-15T07:40:30.531Z,76.60
2022-12-15T07:43:04.085Z,78.60
2022-12-15T07:45:36.348Z,81.90
2022-12-15T07:48:12.060Z,78.60
2022-12-15T07:50:44.704Z,75.30
2022-12-15T07:53:18.010Z,86.70
2022-12-15T07:56:07.514Z,88.60
2022-12-15T07:58:42.641Z,88.00
2022-12-15T08:01:19.977Z,103.50
2022-12-15T08:03:53.156Z,74.00
2022-12-15T08:06:26.764Z,71.40
2022-12-15T08:09:01.258Z,71.80
2022-12-15T08:11:35.746Z,82.80
2022-12-15T08:14:15.234Z,79.10
2022-12-15T08:16:50.302Z,70.80
2022-12-15T08:19:24.312Z,74.10
2022-12-15T08:21:57.452Z,77.70
2022-12-15T08:24:31.392Z,74.40
2022-12-15T08:27:04.489Z,66.50
2022-12-15T08:29:53.843Z,72.40
2022-12-15T08:32:26.946Z,74.20
2022-12-15T08:35:01.021Z,73.50
2022-12-15T08:37:37.813Z,67.20
2022-12-15T08:40:12.810Z,59.90
2022-12-15T08:42:45.685Z,65.10
2022-12-15T08:45:18.974Z,65.40
2022-12-15T08:47:51.301Z,62.40
2022-12-15T08:50:26.516Z,61.60
2022-12-15T08:53:28.886Z,68.40
2022-12-15T08:55:52.501Z,69.50
2022-12-15T08:58:26.268Z,68.90
2022-12-15T09:01:05.551Z,62.20
2022-12-15T09:03:39.082Z,64.90
2022-12-15T09:06:15.267Z,64.00
2022-12-15T09:08:50.551Z,65.00
2022-12-15T09:11:23.581Z,59.00
2022-12-15T09:13:57.559Z,59.00
2022-12-15T09:16:31.253Z,56.80
2022-12-15T09:19:04.508Z,52.40
2022-12-15T09:21:39.934Z,55.20
2022-12-15T09:24:24.752Z,56.60
2022-12-15T09:27:03.856Z,60.50
2022-12-15T09:29:36.815Z,55.90
2022-12-15T09:32:14.027Z,59.00
2022-12-15T09:34:48.952Z,58.70
2022-12-15T09:37:26.789Z,57.10
2022-12-15T09:40:01.134Z,56.50
2022-12-15T09:42:34.448Z,72.90
2022-12-15T09:45:13.401Z,65.20
2022-12-15T09:47:52.925Z,60.80
2022-12-15T09:50:30.808Z,59.40
2022-12-15T09:53:17.812Z,55.30
2022-12-15T09:56:13.029Z,60.20
2022-12-15T09:58:50.625Z,66.50
2022-12-15T10:01:29.264Z,67.40
2022-12-15T10:04:08.122Z,63.60
2022-12-15T10:06:44.674Z,60.30
2022-12-15T10:09:27.552Z,62.00
2022-12-15T10:12:03.642Z,66.70
2022-12-15T10:14:41.973Z,63.00
2022-12-15T10:17:26.015Z,62.00
2022-12-15T10:20:04.354Z,62.50
2022-12-15T10:22:39.566Z,65.20
2022-12-15T10:25:23.503Z,62.10
2022-12-15T10:28:26.524Z,64.80
2022-12-15T10:31:03.888Z,74.50
2022-12-15T10:33:47.037Z,64.70
2022-12-15T10:36:22.359Z,62.60
2022-12-15T10:38:55.468Z,55.50
2022-12-15T10:41:27.909Z,124.60
2022-12-15T10:44:03.295Z,64.50
2022-12-15T10:46:37.717Z,63.60
2022-12-15T10:52:16.745Z,75.50
2022-12-15T10:54:51.379Z,60.60
2022-12-15T10:57:29.149Z,66.40
2022-12-15T11:00:33.512Z,60.70
2022-12-15T11:03:24.383Z,67.80
2022-12-15T11:05:59.250Z,77.70
2022-12-15T11:08:32.562Z,62.70
2022-12-15T11:14:24.758Z,63.10
2022-12-15T11:16:59.300Z,65.50
2022-12-15T11:19:35.221Z,63.90
2022-12-15T11:22:17.619Z,80.40
2022-12-15T11:24:54.032Z,85.30
2022-12-15T11:27:32.227Z,70.60
2022-12-15T11:30:14.530Z,64.60
2022-12-15T11:32:50.902Z,61.80
2022-12-15T11:35:27.447Z,57.00
2022-12-15T11:38:04.554Z,57.80
2022-12-15T11:40:43.550Z,68.50
2022-12-15T11:43:35.947Z,65.40
2022-12-15T11:46:23.145Z,83.30
2022-12-15T11:49:09.529Z,78.00
2022-12-15T11:51:45.675Z,92.80
2022-12-15T11:54:25.179Z,65.60
2022-12-15T11:57:02.601Z,65.00
2022-12-15T11:59:55.224Z,69.80
2022-12-15T12:03:01.236Z,71.30
2022-12-15T12:05:56.224Z,71.40
2022-12-15T12:08:47.067Z,72.30
2022-12-15T12:11:29.482Z,88.00
2022-12-15T12:14:19.882Z,94.70
2022-12-15T12:16:58.625Z,79.90
2022-12-15T12:19:38.094Z,83.80
2022-12-15T12:22:22.548Z,81.10
2022-12-15T12:25:01.783Z,92.10
2022-12-15T12:27:39.927Z,94.40
2022-12-15T12:30:17.442Z,91.60
2022-12-15T12:32:54.586Z,102.30
2022-12-15T12:35:35.105Z,78.70
2022-12-15T12:38:10.557Z,75.60
2022-12-15T12:41:07.471Z,84.70
2022-12-15T12:43:43.808Z,80.10
2022-12-15T12:46:18.884Z,73.60
2022-12-15T12:48:56.164Z,69.40
2022-12-15T12:51:31.321Z,65.80
2022-12-15T12:54:06.116Z,69.80
2022-12-15T12:56:45.620Z,67.60
2022-12-15T12:59:39.472Z,61.50
2022-12-15T13:02:45.580Z,65.80
2022-12-15T13:05:33.987Z,73.80
2022-12-15T13:08:37.875Z,86.20
2022-12-15T13:11:41.982Z,84.20
2022-12-15T13:14:25.628Z,94.30
2022-12-15T13:20:27.096Z,99.70
2022-12-15T13:23:37.537Z,82.60
2022-12-15T13:26:17.439Z,80.40
2022-12-15T13:28:53.052Z,76.00
2022-12-15T13:31:33.657Z,72.20
2022-12-15T13:34:22.758Z,80.60
2022-12-15T13:37:04.274Z,79.70
2022-12-15T13:42:57.883Z,95.90
2022-12-15T13:45:51.100Z,106.40
2022-12-15T13:48:38.317Z,118.20
2022-12-15T13:51:22.777Z,100.50
2022-12-15T13:54:01.468Z,114.10
2022-12-15T13:56:52.507Z,114.30
2022-12-15T13:59:30.885Z,113.20
2022-12-15T14:02:03.750Z,115.50
2022-12-15T14:04:36.609Z,113.30
2022-12-15T14:07:08.935Z,87.90
2022-12-15T14:09:43.668Z,93.60
2022-12-15T14:12:16.584Z,80.40
2022-12-15T14:14:49.620Z,73.90
2022-12-15T14:17:21.785Z,75.90
2022-12-15T14:19:54.217Z,79.00
2022-12-15T14:22:29.623Z,90.20
2022-12-15T14:25:16.201Z,99.00
2022-12-15T14:27:51.051Z,102.00
2022-12-15T14:30:28.376Z,96.60
2022-12-15T14:33:03.434Z,97.30
2022-12-15T14:35:39.034Z,96.50
2022-12-15T14:38:16.448Z,91.50
2022-12-15T14:40:49.892Z,93.30
2022-12-15T14:43:25.174Z,90.10
2022-12-15T14:46:06.551Z,90.50
2022-12-15T14:48:44.378Z,90.80
2022-12-15T14:51:18.146Z,95.00
2022-12-15T14:53:53.743Z,100.80
2022-12-15T14:56:32.127Z,121.70
2022-12-15T14:59:06.389Z,115.90
2022-12-15T15:01:57.920Z,103.60
2022-12-15T15:03:11.751Z,62.80
2022-12-15T15:04:33.857Z,104.50
2022-12-15T15:07:08.608Z,103.10
2022-12-15T15:09:43.367Z,99.10
2022-12-15T15:12:18.649Z,104.50
2022-12-15T15:14:53.140Z,103.70
2022-12-15T15:17:27.368Z,104.20
2022-12-15T15:20:03.893Z,104.20
2022-12-15T15:22:40.969Z,107.90
2022-12-15T15:25:41.315Z,109.30
2022-12-15T15:28:21.938Z,115.80
2022-12-15T15:30:56.263Z,108.60
2022-12-15T15:33:29.351Z,106.10
2022-12-15T15:36:05.387Z,113.70
2022-12-15T15:38:39.481Z,108.90
2022-12-15T15:41:19.533Z,119.10
2022-12-15T15:43:51.982Z,129.40
2022-12-15T15:46:25.954Z,121.20
2022-12-15T15:48:59.754Z,124.00
2022-12-15T15:51:32.923Z,116.50
2022-12-15T15:54:06.782Z,136.90
2022-12-15T15:56:39.250Z,145.10
2022-12-15T15:59:14.553Z,144.30
2022-12-15T16:01:47.907Z,156.40
2022-12-15T16:04:20.245Z,155.40
2022-12-15T16:06:52.411Z,135.50
2022-12-15T16:09:25.400Z,116.70
2022-12-15T16:11:57.892Z,128.80
2022-12-15T16:14:30.390Z,128.30
2022-12-15T16:17:02.679Z,120.10
2022-12-15T16:19:39.586Z,109.10
2022-12-15T16:22:16.488Z,93.30
2022-12-15T16:24:48.912Z,88.60
2022-12-15T16:27:21.257Z,91.90
2022-12-15T16:29:53.420Z,92.50
2022-12-15T16:32:25.497Z,92.70
2022-12-15T16:34:58.887Z,93.20
2022-12-15T16:37:36.205Z,96.70
2022-12-15T16:40:20.236Z,95.20
2022-12-15T16:43:00.089Z,94.50
2022-12-15T16:45:33.262Z,97.70
2022-12-15T16:48:05.678Z,87.80
2022-12-15T16:50:39.611Z,89.00
2022-12-15T16:53:17.620Z,94.80
2022-12-15T16:55:51.854Z,94.60
2022-12-15T16:58:25.214Z,93.70
2022-12-15T17:00:57.296Z,94.30
2022-12-15T17:03:29.592Z,95.60
2022-12-15T17:06:04.208Z,100.10
2022-12-15T17:08:41.414Z,105.40
2022-12-15T17:11:18.673Z,101.90
2022-12-15T17:13:51.864Z,105.90
2022-12-15T17:16:25.732Z,104.70
2022-12-15T17:18:58.374Z,251.60
2022-12-15T17:21:33.002Z,196.10
2022-12-15T17:24:07.971Z,128.10
2022-12-15T17:26:40.948Z,113.90
2022-12-15T17:29:18.056Z,107.80
2022-12-15T17:31:50.142Z,106.80
2022-12-15T17:34:32.573Z,103.80
2022-12-15T17:37:06.349Z,102.40
2022-12-15T17:39:38.905Z,95.60
2022-12-15T17:42:19.648Z,90.70
2022-12-15T17:44:52.284Z,91.20
2022-12-15T17:47:28.000Z,84.90
2022-12-15T17:50:00.212Z,83.90
2022-12-15T17:52:34.558Z,89.20
2022-12-15T17:55:18.055Z,85.90
2022-12-15T17:57:50.364Z,87.10
2022-12-15T18:00:26.300Z,82.30
2022-12-15T18:02:59.465Z,82.00
2022-12-15T18:05:32.685Z,83.20
2022-12-15T18:08:08.406Z,87.20
2022-12-15T18:10:41.367Z,85.80
2022-12-15T18:13:20.092Z,85.90
2022-12-15T18:15:52.481Z,93.80
2022-12-15T18:18:25.236Z,92.60
2022-12-15T18:21:00.330Z,102.70
2022-12-15T18:23:33.476Z,90.20
2022-12-15T18:26:08.329Z,97.70
2022-12-15T18:28:40.275Z,101.20
2022-12-15T18:31:18.961Z,96.40
2022-12-15T18:33:51.361Z,104.20
2022-12-15T18:36:24.111Z,110.10
2022-12-15T18:38:56.050Z,111.90
2022-12-15T18:41:28.028Z,114.00
2022-12-15T18:44:00.062Z,114.20
2022-12-15T18:46:32.120Z,118.00
2022-12-15T18:49:09.279Z,121.00
2022-12-15T18:51:42.001Z,118.60
2022-12-15T18:54:18.328Z,115.50
2022-12-15T18:56:50.473Z,118.40
2022-12-15T18:59:24.247Z,125.70
2022-12-15T19:01:56.406Z,124.80
2022-12-15T19:04:28.483Z,116.70
2022-12-15T19:07:06.697Z,121.70
2022-12-15T19:09:38.718Z,127.20
2022-12-15T19:12:19.088Z,119.40
2022-12-15T19:14:52.772Z,119.30
2022-12-15T19:17:45.047Z,119.50
2022-12-15T19:20:38.172Z,117.90
2022-12-15T19:23:10.984Z,116.10
2022-12-15T19:25:43.390Z,115.90
2022-12-15T19:28:17.661Z,110.50
2022-12-15T19:30:49.595Z,114.50
2022-12-15T19:33:25.319Z,113.10
2022-12-15T19:35:57.569Z,114.50
2022-12-15T19:38:31.855Z,107.50
2022-12-15T19:41:03.887Z,96.80
2022-12-15T19:43:36.349Z,94.40
2022-12-15T19:46:09.961Z,88.40
2022-12-15T19:48:43.777Z,87.40
2022-12-15T19:51:17.145Z,85.80
2022-12-15T19:53:50.240Z,94.50
2022-12-15T19:56:24.172Z,94.40
2022-12-15T19:58:56.881Z,95.10
2022-12-15T20:01:32.252Z,86.00
2022-12-15T20:04:05.228Z,90.50
2022-12-15T20:06:38.589Z,88.80
2022-12-15T20:09:13.087Z,87.90
2022-12-15T20:11:46.278Z,88.90
2022-12-15T20:14:20.033Z,87.20
2022-12-15T20:16:52.956Z,94.30
2022-12-15T20:19:25.855Z,92.60
2022-12-15T20:21:58.355Z,95.80
2022-12-15T20:24:31.804Z,99.40
2022-12-15T20:27:10.185Z,97.10
2022-12-15T20:29:44.631Z,105.00
2022-12-15T20:32:19.586Z,114.70
2022-12-15T20:34:51.831Z,124.60
2022-12-15T20:37:27.008Z,128.40
2022-12-15T20:40:00.504Z,129.20
2022-12-15T20:42:33.542Z,130.70
2022-12-15T20:49:08.207Z,136.50
2022-12-15T20:51:42.888Z,142.40
2022-12-15T20:54:18.514Z,128.90
2022-12-15T20:56:52.867Z,139.40
2022-12-15T20:59:26.551Z,129.10
2022-12-15T21:02:01.018Z,130.50
2022-12-15T21:04:34.848Z,124.80
2022-12-15T21:07:10.983Z,119.50
2022-12-15T21:09:44.566Z,119.30
2022-12-15T21:12:21.363Z,128.20
2022-12-15T21:14:54.879Z,123.80
2022-12-15T21:17:29.886Z,119.20
2022-12-15T21:20:05.887Z,117.10
2022-12-15T21:22:38.929Z,112.90
2022-12-15T21:25:24.509Z,103.60
2022-12-15T21:27:57.358Z,102.90
2022-12-15T21:30:33.588Z,100.50
2022-12-15T21:33:06.212Z,102.60
2022-12-15T21:35:40.181Z,98.50
2022-12-15T21:38:27.979Z,101.10
2022-12-15T21:41:02.253Z,92.30
2022-12-15T21:43:39.883Z,92.60
2022-12-15T21:46:17.297Z,90.10
2022-12-15T21:49:08.645Z,93.70
2022-12-15T21:51:43.881Z,92.80
2022-12-15T21:54:26.028Z,87.40
2022-12-15T21:57:09.134Z,94.20
2022-12-15T21:59:42.997Z,89.90
2022-12-15T22:02:27.039Z,94.20
2022-12-15T22:05:00.231Z,91.70
2022-12-15T22:07:35.410Z,87.80
2022-12-15T22:10:09.462Z,103.40
2022-12-15T22:12:43.896Z,99.60
2022-12-15T22:15:22.131Z,96.50
2022-12-15T22:17:55.922Z,84.80
2022-12-15T22:20:51.646Z,90.00
2022-12-15T22:49:37.927Z,73.80
2022-12-15T22:52:17.584Z,77.90
2022-12-15T22:54:50.714Z,73.70
2022-12-15T22:57:27.052Z,71.30
2022-12-15T23:00:05.714Z,67.50
2022-12-15T23:02:41.985Z,68.70
2022-12-15T23:05:16.919Z,65.10
2022-12-15T23:07:51.387Z,65.80
2022-12-15T23:10:42.181Z,66.10
2022-12-15T23:13:14.521Z,66.70
2022-12-15T23:16:04.042Z,64.70
2022-12-15T23:18:37.341Z,68.00
2022-12-15T23:21:10.541Z,63.00
2022-12-15T23:23:43.642Z,60.60
2022-12-15T23:26:16.466Z,60.70
2022-12-15T23:28:53.088Z,62.90
2022-12-15T23:31:28.549Z,65.10
2022-12-15T23:34:02.222Z,61.90
2022-12-15T23:36:34.798Z,60.50
2022-12-15T23:39:10.382Z,59.30
2022-12-15T23:41:45.894Z,50.60
2022-12-15T23:44:18.811Z,56.90
2022-12-15T23:46:50.975Z,56.20
2022-12-15T23:49:23.741Z,57.40
2022-12-15T23:51:57.624Z,53.70
2022-12-15T23:54:31.206Z,57.40
2022-12-15T23:57:04.785Z,55.80
2022-12-15T23:59:38.078Z,55.20
